createdAt,value
2022-09-14T00:01:27.721Z,100017.97
2022-09-14T00:03:57.053Z,100001.91
2022-09-14T00:06:24.659Z,100004.25
2022-09-14T00:08:53.100Z,100001.50
2022-09-14T00:11:22.664Z,100000.91
2022-09-14T00:13:50.546Z,99996.09
2022-09-14T00:16:21.107Z,99995.19
2022-09-14T00:18:59.175Z,99988.00
2022-09-14T00:21:27.409Z,99985.56
2022-09-14T00:23:54.570Z,99979.56
2022-09-14T00:26:22.790Z,99988.81
2022-09-14T00:28:55.350Z,99982.84
2022-09-14T00:31:23.940Z,99970.78
2022-09-14T00:33:52.004Z,99960.78
2022-09-14T00:36:27.622Z,99956.75
2022-09-14T00:38:56.778Z,99953.28
2022-09-14T00:41:27.223Z,99946.91
2022-09-14T00:44:06.162Z,99942.22
2022-09-14T00:46:46.352Z,99935.69
2022-09-14T00:49:34.571Z,99935.31
2022-09-14T00:52:23.074Z,99923.66
2022-09-14T00:54:58.540Z,99917.69
2022-09-14T00:57:27.963Z,99922.09
2022-09-14T00:59:55.731Z,99917.59
2022-09-14T01:02:24.315Z,99906.53
2022-09-14T01:04:51.996Z,99904.56
2022-09-14T01:07:22.280Z,99904.13
2022-09-14T01:09:55.588Z,99897.28
2022-09-14T01:12:46.623Z,99887.16
2022-09-14T01:15:32.388Z,99894.56
2022-09-14T01:18:15.528Z,99890.94
2022-09-14T01:20:54.602Z,99892.84
2022-09-14T01:23:43.570Z,99882.47
2022-09-14T01:26:32.433Z,99874.84
2022-09-14T01:29:42.024Z,99878.91
2022-09-14T01:32:20.383Z,99879.28
2022-09-14T01:35:15.771Z,99879.31
2022-09-14T01:37:50.916Z,99881.38
2022-09-14T01:40:37.511Z,99873.78
2022-09-14T01:43:10.859Z,99890.69
2022-09-14T01:45:50.425Z,99892.22
2022-09-14T01:48:22.745Z,99904.19
2022-09-14T01:50:56.974Z,99904.47
2022-09-14T01:53:37.670Z,99900.53
2022-09-14T01:56:15.823Z,99899.44
2022-09-14T01:58:57.218Z,99884.22
2022-09-14T02:01:37.856Z,99868.88
2022-09-14T02:04:08.658Z,99861.78
2022-09-14T02:06:39.890Z,99862.13
2022-09-14T02:09:10.237Z,99872.59
2022-09-14T02:11:38.543Z,99873.00
2022-09-14T02:14:06.154Z,99865.97
2022-09-14T02:16:34.831Z,99861.47
2022-09-14T02:19:02.483Z,99867.03
2022-09-14T02:21:31.861Z,99871.63
2022-09-14T02:24:00.165Z,99877.81
2022-09-14T02:26:28.275Z,99879.47
2022-09-14T02:28:56.254Z,99890.31
2022-09-14T02:31:48.591Z,99880.28
2022-09-14T02:34:48.313Z,99894.56
2022-09-14T02:37:21.938Z,99889.88
2022-09-14T02:40:07.965Z,99891.06
2022-09-14T02:42:53.731Z,99889.44
2022-09-14T02:45:33.197Z,99890.69
2022-09-14T02:48:06.425Z,99903.84
2022-09-14T02:50:33.560Z,99902.25
2022-09-14T02:53:12.928Z,99895.03
2022-09-14T02:55:46.989Z,99895.06
2022-09-14T02:58:15.122Z,99896.69
2022-09-14T03:00:45.687Z,99887.75
2022-09-14T03:03:15.629Z,99889.88
2022-09-14T03:05:42.976Z,99887.78
2022-09-14T03:08:10.962Z,99888.66
2022-09-14T03:10:38.720Z,99898.69
2022-09-14T03:13:05.943Z,99890.63
2022-09-14T03:15:33.181Z,99889.53
2022-09-14T03:18:00.539Z,99886.75
2022-09-14T03:20:29.395Z,99898.78
2022-09-14T03:22:58.524Z,99888.88
2022-09-14T03:25:26.040Z,99891.28
2022-09-14T03:27:58.808Z,99892.50
2022-09-14T03:30:26.485Z,99888.09
2022-09-14T03:32:53.722Z,99888.03
2022-09-14T03:35:20.997Z,99883.56
2022-09-14T03:37:48.375Z,99875.09
2022-09-14T03:40:21.423Z,99867.50
2022-09-14T03:42:50.712Z,99868.81
2022-09-14T03:45:19.030Z,99872.00
2022-09-14T03:47:49.153Z,99881.56
2022-09-14T03:50:17.780Z,99890.22
2022-09-14T03:52:45.130Z,99893.31
2022-09-14T03:55:12.421Z,99903.34
2022-09-14T03:57:41.737Z,99899.66
2022-09-14T04:00:10.293Z,99888.50
2022-09-14T04:02:41.218Z,99881.03
2022-09-14T04:05:08.622Z,99883.03
2022-09-14T04:07:36.361Z,99869.41
2022-09-14T04:10:05.564Z,99873.81
2022-09-14T04:12:36.956Z,99871.38
2022-09-14T04:15:06.018Z,99873.47
2022-09-14T04:17:33.506Z,99863.19
2022-09-14T04:20:00.766Z,99871.88
2022-09-14T04:22:28.046Z,99862.13
2022-09-14T04:24:55.334Z,99865.72
2022-09-14T04:27:23.285Z,99864.88
2022-09-14T04:29:50.645Z,99856.94
2022-09-14T04:32:17.897Z,99850.88
2022-09-14T04:34:45.174Z,99864.56
2022-09-14T04:37:12.364Z,99855.22
2022-09-14T04:39:39.677Z,99858.19
2022-09-14T04:42:07.430Z,99854.59
2022-09-14T04:44:34.605Z,99858.28
2022-09-14T04:47:01.926Z,99864.16
2022-09-14T04:49:29.284Z,99865.81
2022-09-14T04:51:56.519Z,99864.59
2022-09-14T04:54:23.712Z,99852.56
2022-09-14T04:56:50.909Z,99853.25
2022-09-14T04:59:18.273Z,99839.69
2022-09-14T05:01:47.725Z,99839.69
2022-09-14T05:04:15.483Z,99846.31
2022-09-14T05:06:44.236Z,99839.16
2022-09-14T05:09:16.597Z,99831.19
2022-09-14T05:11:44.553Z,99831.88
2022-09-14T05:14:13.303Z,99830.31
2022-09-14T05:16:41.510Z,99817.66
2022-09-14T05:19:12.291Z,99820.09
2022-09-14T05:21:39.664Z,99810.94
2022-09-14T05:24:15.142Z,99820.81
2022-09-14T05:26:43.593Z,99816.84
2022-09-14T05:29:16.906Z,99820.31
2022-09-14T05:31:45.995Z,99816.84
2022-09-14T05:34:13.409Z,99818.72
2022-09-14T05:36:41.098Z,99819.97
2022-09-14T05:39:08.762Z,99822.31
2022-09-14T05:41:36.278Z,99819.88
2022-09-14T05:44:04.171Z,99822.75
2022-09-14T05:46:31.605Z,99831.56
2022-09-14T05:48:59.033Z,99842.03
2022-09-14T05:51:27.645Z,99849.94
2022-09-14T05:53:56.937Z,99849.09
2022-09-14T05:56:26.679Z,99860.75
2022-09-14T05:58:54.286Z,99855.16
2022-09-14T06:01:27.270Z,99857.94
2022-09-14T06:03:56.310Z,99859.16
2022-09-14T06:06:24.109Z,99857.94
2022-09-14T06:08:55.049Z,99847.94
2022-09-14T06:11:28.535Z,99847.53
2022-09-14T06:13:56.648Z,99849.91
2022-09-14T06:16:25.195Z,99852.72
2022-09-14T06:18:54.212Z,99857.16
2022-09-14T06:21:23.826Z,99852.72
2022-09-14T06:23:51.985Z,99859.03
2022-09-14T06:26:20.727Z,99855.03
2022-09-14T06:28:48.095Z,99852.97
2022-09-14T06:31:17.901Z,99847.69
2022-09-14T06:33:46.548Z,99840.16
2022-09-14T06:36:21.774Z,99843.75
2022-09-14T06:38:49.997Z,99851.78
2022-09-14T06:41:20.479Z,99845.28
2022-09-14T06:43:48.819Z,99848.09
2022-09-14T06:46:21.799Z,99852.56
2022-09-14T06:48:55.611Z,99861.44
2022-09-14T06:51:37.164Z,99862.94
2022-09-14T06:54:05.171Z,99866.53
2022-09-14T06:56:35.041Z,99873.94
2022-09-14T06:59:02.591Z,99875.47
2022-09-14T07:01:30.101Z,99870.03
2022-09-14T07:03:58.586Z,99874.56
2022-09-14T07:06:33.881Z,99870.84
2022-09-14T07:09:03.980Z,99864.28
2022-09-14T07:11:31.994Z,99866.94
2022-09-14T07:13:59.913Z,99867.00
2022-09-14T07:16:28.766Z,99868.47
2022-09-14T07:18:57.778Z,99865.56
2022-09-14T07:21:26.173Z,99861.13
2022-09-14T07:23:53.973Z,99862.16
2022-09-14T07:26:26.928Z,99864.03
2022-09-14T07:28:59.937Z,99864.78
2022-09-14T07:31:30.459Z,99865.34
2022-09-14T07:34:00.139Z,99875.63
2022-09-14T07:36:30.475Z,99872.41
2022-09-14T07:39:01.781Z,99867.06
2022-09-14T07:41:30.368Z,99874.84
2022-09-14T07:44:00.516Z,99879.78
2022-09-14T07:46:29.699Z,99876.78
2022-09-14T07:48:58.783Z,99882.38
2022-09-14T07:51:26.682Z,99884.75
2022-09-14T07:53:54.240Z,99884.22
2022-09-14T07:56:21.936Z,99895.44
2022-09-14T07:58:53.996Z,99896.84
2022-09-14T08:01:23.319Z,99905.59
2022-09-14T08:03:51.035Z,99910.75
2022-09-14T08:06:21.567Z,99905.75
2022-09-14T08:08:55.479Z,99906.44
2022-09-14T08:11:30.805Z,99908.28
2022-09-14T08:14:16.128Z,99910.75
2022-09-14T08:16:46.308Z,99921.00
2022-09-14T08:19:17.894Z,99924.03
2022-09-14T08:21:47.086Z,99927.00
2022-09-14T08:24:17.590Z,99934.00
2022-09-14T08:26:45.079Z,99941.94
2022-09-14T08:29:16.489Z,99943.25
2022-09-14T08:31:47.367Z,99941.19
2022-09-14T08:34:15.956Z,99933.13
2022-09-14T08:36:43.871Z,99941.34
2022-09-14T08:39:12.381Z,99937.63
2022-09-14T08:41:45.812Z,99937.53
2022-09-14T08:44:34.117Z,99947.97
2022-09-14T08:47:04.238Z,99944.94
2022-09-14T08:49:37.495Z,99951.47
2022-09-14T08:52:05.201Z,99952.06
2022-09-14T08:54:37.140Z,99950.56
2022-09-14T08:57:16.544Z,99959.63
2022-09-14T08:59:52.870Z,99960.47
2022-09-14T09:02:44.609Z,99958.75
2022-09-14T09:05:20.916Z,99954.63
2022-09-14T09:07:54.282Z,99950.06
2022-09-14T09:10:21.891Z,99951.22
2022-09-14T09:12:53.668Z,99951.22
2022-09-14T09:15:24.303Z,99962.31
2022-09-14T09:18:09.657Z,99963.44
2022-09-14T09:20:44.330Z,99953.06
2022-09-14T09:23:16.306Z,99953.19
2022-09-14T09:26:07.024Z,99956.38
2022-09-14T09:28:34.581Z,99959.50
2022-09-14T09:31:05.593Z,99959.03
2022-09-14T09:33:52.993Z,99955.72
2022-09-14T09:36:23.316Z,99952.88
2022-09-14T09:38:50.880Z,99944.94
2022-09-14T09:41:27.123Z,99951.06
2022-09-14T09:44:01.863Z,99949.09
2022-09-14T09:46:34.244Z,99957.59
2022-09-14T09:49:22.953Z,99950.91
2022-09-14T09:51:50.684Z,99950.97
2022-09-14T09:54:29.709Z,99951.72
2022-09-14T09:57:05.579Z,99949.03
2022-09-14T09:59:35.394Z,99947.00
2022-09-14T10:02:24.282Z,99946.56
2022-09-14T10:05:22.663Z,99942.91
2022-09-14T10:07:52.232Z,99938.47
2022-09-14T10:10:22.333Z,99936.81
2022-09-14T10:12:56.385Z,99925.28
2022-09-14T10:15:31.874Z,99924.97
2022-09-14T10:18:11.427Z,99929.69
2022-09-14T10:20:42.212Z,99932.53
2022-09-14T10:23:18.614Z,99915.53
2022-09-14T10:25:47.311Z,99916.00
2022-09-14T10:28:28.782Z,99916.81
2022-09-14T10:31:08.640Z,99910.31
2022-09-14T10:33:35.979Z,99903.50
2022-09-14T10:36:16.148Z,99900.03
2022-09-14T10:38:52.818Z,99901.75
2022-09-14T10:41:30.993Z,99894.53
2022-09-14T10:44:22.815Z,99895.72
2022-09-14T10:47:07.548Z,99884.78
2022-09-14T10:49:53.349Z,99880.13
2022-09-14T10:52:24.654Z,99881.44
2022-09-14T10:55:07.921Z,99871.66
2022-09-14T10:57:35.177Z,99869.66
2022-09-14T11:00:14.964Z,99873.44
2022-09-14T11:02:45.240Z,99866.84
2022-09-14T11:05:22.496Z,99875.97
2022-09-14T11:08:14.180Z,99867.66
2022-09-14T11:10:52.116Z,99864.38
2022-09-14T11:13:44.517Z,99864.25
2022-09-14T11:16:41.200Z,99868.81
2022-09-14T11:19:37.039Z,99854.66
2022-09-14T11:22:46.674Z,99867.22
2022-09-14T11:25:25.368Z,99859.81
2022-09-14T11:27:57.659Z,99876.13
2022-09-14T11:30:33.196Z,99875.88
2022-09-14T11:33:09.128Z,99874.63
2022-09-14T11:35:53.202Z,99869.25
2022-09-14T11:38:22.326Z,99875.13
2022-09-14T11:40:54.439Z,99878.19
2022-09-14T11:43:36.520Z,99877.53
2022-09-14T11:46:06.676Z,99870.47
2022-09-14T11:48:42.754Z,99882.03
2022-09-14T11:51:33.681Z,99876.75
2022-09-14T11:54:00.960Z,99885.53
2022-09-14T11:56:31.267Z,99881.94
2022-09-14T11:59:00.772Z,99879.69
2022-09-14T12:01:37.302Z,99878.25
2022-09-14T12:04:13.438Z,99877.63
2022-09-14T12:06:40.741Z,99875.53
2022-09-14T12:09:14.343Z,99870.59
2022-09-14T12:11:43.234Z,99870.16
2022-09-14T12:14:15.702Z,99874.47
2022-09-14T12:17:38.447Z,99878.78
2022-09-14T12:20:27.182Z,99877.16
2022-09-14T12:23:13.641Z,99869.41
2022-09-14T12:25:53.628Z,99862.00
2022-09-14T12:28:38.895Z,99857.44
2022-09-14T12:31:10.346Z,99851.22
2022-09-14T12:33:37.544Z,99849.13
2022-09-14T12:36:05.582Z,99855.94
2022-09-14T12:38:51.018Z,99853.22
2022-09-14T12:41:18.261Z,99850.84
2022-09-14T12:43:46.189Z,99847.25
2022-09-14T12:46:22.637Z,99852.34
2022-09-14T12:48:54.273Z,99844.66
2022-09-14T12:51:34.053Z,99837.03
2022-09-14T12:54:26.157Z,99839.94
2022-09-14T12:57:15.428Z,99839.31
2022-09-14T12:59:54.117Z,99830.56
2022-09-14T13:03:10.200Z,99824.00
2022-09-14T13:05:37.506Z,99813.56
2022-09-14T13:08:10.205Z,99811.31
2022-09-14T13:10:40.671Z,99811.31
2022-09-14T13:13:30.794Z,99804.44
2022-09-14T13:15:58.751Z,99797.19
2022-09-14T13:18:35.081Z,99799.78
2022-09-14T13:21:20.445Z,99807.28
2022-09-14T13:23:48.267Z,99802.53
2022-09-14T13:26:21.429Z,99813.97
2022-09-14T13:28:51.215Z,99809.47
2022-09-14T13:31:32.389Z,99816.03
2022-09-14T13:33:59.904Z,99828.84
2022-09-14T13:36:30.525Z,99827.22
2022-09-14T13:39:01.631Z,99825.44
2022-09-14T13:41:30.148Z,99823.81
2022-09-14T13:43:58.321Z,99828.06
2022-09-14T13:46:27.033Z,99828.25
2022-09-14T13:48:54.765Z,99838.28
2022-09-14T13:51:24.877Z,99844.25
2022-09-14T13:53:55.006Z,99844.59
2022-09-14T13:56:33.964Z,99836.88
2022-09-14T13:59:07.161Z,99837.03
2022-09-14T14:01:40.545Z,99827.94
2022-09-14T14:04:25.986Z,99824.84
2022-09-14T14:07:23.339Z,99823.13
2022-09-14T14:09:53.700Z,99826.00
2022-09-14T14:12:24.371Z,99827.41
2022-09-14T14:15:14.810Z,99832.31
2022-09-14T14:17:42.259Z,99828.56
2022-09-14T14:20:27.947Z,99838.88
2022-09-14T14:23:10.641Z,99839.50
2022-09-14T14:25:46.026Z,99842.03
2022-09-14T14:28:20.115Z,99837.44
2022-09-14T14:30:47.383Z,99836.59
2022-09-14T14:33:19.705Z,99837.84
2022-09-14T14:35:48.676Z,99836.16
2022-09-14T14:38:16.254Z,99832.25
2022-09-14T14:40:44.371Z,99837.38
2022-09-14T14:43:18.794Z,99832.00
2022-09-14T14:45:46.156Z,99843.28
2022-09-14T14:48:13.499Z,99830.16
2022-09-14T14:50:40.726Z,99821.38
2022-09-14T14:53:07.940Z,99830.34
2022-09-14T14:55:37.464Z,99818.63
2022-09-14T14:58:09.909Z,99817.16
2022-09-14T15:00:38.639Z,99811.41
2022-09-14T15:03:05.910Z,99811.22
2022-09-14T15:05:33.639Z,99814.72
2022-09-14T15:08:01.024Z,99823.19
2022-09-14T15:10:29.332Z,99812.81
2022-09-14T15:12:56.770Z,99820.50
2022-09-14T15:15:26.325Z,99823.47
2022-09-14T15:17:54.149Z,99819.53
2022-09-14T15:20:22.073Z,99827.47
2022-09-14T15:22:49.356Z,99827.56
2022-09-14T15:25:18.058Z,99826.31
2022-09-14T15:27:45.572Z,99828.00
2022-09-14T15:30:13.728Z,99823.50
2022-09-14T15:32:41.372Z,99826.25
2022-09-14T15:35:12.538Z,99821.53
2022-09-14T15:37:40.095Z,99824.03
2022-09-14T15:40:07.934Z,99828.56
2022-09-14T15:42:35.209Z,99823.47
2022-09-14T15:45:02.701Z,99820.16
2022-09-14T15:47:32.890Z,99827.59
2022-09-14T15:50:04.009Z,99821.53
2022-09-14T15:52:31.344Z,99825.03
2022-09-14T15:54:58.704Z,99835.09
2022-09-14T15:57:26.031Z,99834.38
2022-09-14T15:59:54.204Z,99829.06
2022-09-14T16:02:22.250Z,99832.81
2022-09-14T16:04:49.644Z,99839.28
2022-09-14T16:07:16.876Z,99841.31
2022-09-14T16:09:44.179Z,99835.06
2022-09-14T16:12:12.537Z,99836.66
2022-09-14T16:14:40.101Z,99839.06
2022-09-14T16:17:09.157Z,99836.41
2022-09-14T16:19:36.423Z,99834.88
2022-09-14T16:22:04.262Z,99836.50
2022-09-14T16:24:31.812Z,99834.88
2022-09-14T16:26:59.700Z,99838.13
2022-09-14T16:29:27.416Z,99835.38
2022-09-14T16:31:54.858Z,99826.13
2022-09-14T16:34:27.340Z,99839.38
2022-09-14T16:36:55.372Z,99847.81
2022-09-14T16:39:25.489Z,99840.28
2022-09-14T16:41:55.579Z,99848.06
2022-09-14T16:44:24.670Z,99855.72
2022-09-14T16:46:53.191Z,99847.69
2022-09-14T16:49:25.041Z,99849.97
2022-09-14T16:51:55.372Z,99854.31
2022-09-14T16:54:24.391Z,99849.22
2022-09-14T16:56:52.104Z,99857.94
2022-09-14T16:59:20.577Z,99863.31
2022-09-14T17:01:53.440Z,99870.13
2022-09-14T17:04:22.351Z,99869.50
2022-09-14T17:06:50.569Z,99866.44
2022-09-14T17:09:23.784Z,99867.78
2022-09-14T17:11:51.513Z,99874.06
2022-09-14T17:14:21.740Z,99877.47
2022-09-14T17:16:49.346Z,99882.63
2022-09-14T17:19:17.296Z,99885.81
2022-09-14T17:21:46.088Z,99877.78
2022-09-14T17:24:14.431Z,99870.69
2022-09-14T17:26:42.300Z,99873.97
2022-09-14T17:29:09.994Z,99875.75
2022-09-14T17:31:40.586Z,99877.78
2022-09-14T17:34:09.990Z,99876.78
2022-09-14T17:36:38.177Z,99885.81
2022-09-14T17:39:11.412Z,99878.84
2022-09-14T17:41:40.618Z,99882.94
2022-09-14T17:44:10.594Z,99884.59
2022-09-14T17:46:46.010Z,99887.75
2022-09-14T17:49:18.292Z,99893.91
2022-09-14T17:51:45.514Z,99896.31
2022-09-14T17:54:13.209Z,99895.91
2022-09-14T17:56:40.470Z,99893.59
2022-09-14T17:59:11.655Z,99904.91
2022-09-14T18:01:39.295Z,99900.66
2022-09-14T18:04:11.029Z,99908.53
2022-09-14T18:06:40.623Z,99903.91
2022-09-14T18:09:11.589Z,99913.88
2022-09-14T18:11:39.105Z,99918.81
2022-09-14T18:14:06.456Z,99913.31
2022-09-14T18:16:34.004Z,99925.88
2022-09-14T18:19:01.628Z,99932.22
2022-09-14T18:21:28.789Z,99933.88
2022-09-14T18:23:56.344Z,99939.16
2022-09-14T18:26:24.844Z,99939.22
2022-09-14T18:28:55.868Z,99942.31
2022-09-14T18:31:23.387Z,99951.59
2022-09-14T18:33:53.946Z,99953.94
2022-09-14T18:36:22.392Z,99951.16
2022-09-14T18:38:52.992Z,99952.34
2022-09-14T18:41:20.752Z,99957.28
2022-09-14T18:43:50.872Z,99953.94
2022-09-14T18:46:18.589Z,99949.16
2022-09-14T18:48:46.744Z,99962.59
2022-09-14T18:51:14.526Z,99970.47
2022-09-14T18:53:42.391Z,99963.38
2022-09-14T18:56:14.660Z,99958.56
2022-09-14T18:58:44.279Z,99958.22
2022-09-14T19:01:12.359Z,99973.38
2022-09-14T19:03:41.641Z,99975.50
2022-09-14T19:06:11.536Z,99972.09
2022-09-14T19:08:38.993Z,99976.28
2022-09-14T19:11:11.225Z,99980.63
2022-09-14T19:13:38.793Z,99986.03
2022-09-14T19:16:08.214Z,99995.13
2022-09-14T19:18:35.817Z,99992.34
2022-09-14T19:21:14.317Z,99988.91
2022-09-14T19:23:42.962Z,99988.78
2022-09-14T19:26:14.674Z,99994.75
2022-09-14T19:28:42.322Z,100004.56
2022-09-14T19:31:12.238Z,100001.25
2022-09-14T19:33:44.512Z,100008.63
2022-09-14T19:36:15.619Z,100007.50
2022-09-14T19:38:43.457Z,100011.84
2022-09-14T19:41:10.869Z,100013.75
2022-09-14T19:43:38.509Z,100019.50
2022-09-14T19:46:10.763Z,100031.00
2022-09-14T19:48:38.486Z,100031.09
2022-09-14T19:51:12.492Z,100034.78
2022-09-14T19:53:39.726Z,100053.69
2022-09-14T19:56:10.806Z,100050.06
2022-09-14T19:58:39.874Z,100054.41
2022-09-14T20:01:07.601Z,100047.66
2022-09-14T20:03:36.979Z,100050.00
2022-09-14T20:06:10.194Z,100064.84
2022-09-14T20:08:37.923Z,100054.84
2022-09-14T20:11:09.811Z,100056.00
2022-09-14T20:13:38.026Z,100062.91
2022-09-14T20:16:29.016Z,100056.94
2022-09-14T20:18:58.253Z,100073.81
2022-09-14T20:21:26.601Z,100071.75
2022-09-14T20:24:14.480Z,100073.88
2022-09-14T20:26:42.245Z,100082.72
2022-09-14T20:29:09.506Z,100086.34
2022-09-14T20:31:37.019Z,100085.53
2022-09-14T20:34:04.520Z,100087.97
2022-09-14T20:36:32.418Z,100083.97
2022-09-14T20:39:00.029Z,100085.16
2022-09-14T20:41:34.214Z,100081.16
2022-09-14T20:44:01.914Z,100087.06
2022-09-14T20:46:35.241Z,100084.72
2022-09-14T20:49:04.570Z,100087.13
2022-09-14T20:51:32.192Z,100087.94
2022-09-14T20:53:59.539Z,100087.94
2022-09-14T20:56:28.817Z,100093.91
2022-09-14T20:58:58.078Z,100089.53
2022-09-14T21:01:28.253Z,100095.56
2022-09-14T21:03:56.035Z,100101.59
2022-09-14T21:06:24.678Z,100101.97
2022-09-14T21:08:52.051Z,100101.19
2022-09-14T21:11:28.673Z,100097.59
2022-09-14T21:13:57.671Z,100107.63
2022-09-14T21:16:28.140Z,100098.41
2022-09-14T21:19:06.593Z,100103.22
2022-09-14T21:21:34.211Z,100098.00
2022-09-14T21:24:03.125Z,100108.81
2022-09-14T21:26:34.068Z,100110.84
2022-09-14T21:29:04.829Z,100106.81
2022-09-14T21:31:36.418Z,100116.03
2022-09-14T21:34:05.701Z,100126.44
2022-09-14T21:36:36.355Z,100128.03
2022-09-14T21:39:25.605Z,100128.84
2022-09-14T21:41:58.415Z,100126.44
2022-09-14T21:44:31.318Z,100132.00
2022-09-14T21:46:59.401Z,100131.59
2022-09-14T21:49:26.707Z,100136.41
2022-09-14T21:51:53.909Z,100137.63
2022-09-14T21:54:21.446Z,100150.81
2022-09-14T21:56:48.737Z,100152.78
2022-09-14T21:59:18.470Z,100153.16
2022-09-14T22:01:46.085Z,100155.25
2022-09-14T22:04:22.686Z,100157.66
2022-09-14T22:06:51.499Z,100164.84
2022-09-14T22:09:21.778Z,100169.53
2022-09-14T22:11:49.141Z,100163.50
2022-09-14T22:14:19.159Z,100173.41
2022-09-14T22:16:46.874Z,100172.63
2022-09-14T22:19:24.092Z,100179.75
2022-09-14T22:21:51.914Z,100176.59
2022-09-14T22:24:21.973Z,100179.41
2022-09-14T22:26:52.866Z,100179.34
2022-09-14T22:29:21.181Z,100176.22
2022-09-14T22:31:48.549Z,100176.31
2022-09-14T22:34:16.767Z,100185.47
2022-09-14T22:36:44.001Z,100185.06
2022-09-14T22:39:11.642Z,100181.50
2022-09-14T22:41:39.885Z,100199.75
2022-09-14T22:44:07.630Z,100187.38
2022-09-14T22:46:35.748Z,100192.50
2022-09-14T22:49:03.504Z,100195.09
2022-09-14T22:51:33.110Z,100199.44
2022-09-14T22:54:00.904Z,100189.84
2022-09-14T22:56:35.274Z,100193.25
2022-09-14T22:59:05.552Z,100193.63
2022-09-14T23:01:35.315Z,100190.06
2022-09-14T23:04:11.190Z,100190.88
2022-09-14T23:06:41.489Z,100190.53
2022-09-14T23:09:10.006Z,100194.72
2022-09-14T23:11:37.730Z,100200.63
2022-09-14T23:14:05.121Z,100204.31
2022-09-14T23:16:32.468Z,100202.66
2022-09-14T23:19:01.553Z,100196.69
2022-09-14T23:21:29.893Z,100188.81
2022-09-14T23:23:59.476Z,100180.44
2022-09-14T23:26:27.343Z,100186.94
2022-09-14T23:28:57.069Z,100198.47
2022-09-14T23:31:24.720Z,100193.56
2022-09-14T23:33:53.541Z,100202.69
2022-09-14T23:36:22.208Z,100202.97
2022-09-14T23:38:50.050Z,100194.69
2022-09-14T23:41:19.136Z,100202.56
2022-09-14T23:43:46.584Z,100203.84
2022-09-14T23:46:14.251Z,100207.38
2022-09-14T23:48:41.629Z,100219.50
2022-09-14T23:51:09.789Z,100215.06
2022-09-14T23:53:37.443Z,100216.16
2022-09-14T23:56:05.449Z,100217.34
2022-09-14T23:58:32.621Z,100221.34
